PWSweather.com
Personal Weather Stations
Station Observations
ASHURSTBR1
New Forest, TottonGB SO40 7EA

New ForestTottonGB SO40 7EA

Lat: 50.9097024, Lon: -1.5111684999999397

Elevation: 27

Station Type: Davis VP2 Plus

Latest ConditionsUpdated 4:00:00 PM GMT Saturday, Nov 17, 2018
Currently Today's Max Today's Min Today's Average
Temperature 49.9°F9.9°C 52.8°F11.6°C 45.3°F7.4°C 48.1°F8.9°C
Dew Point 41.6°F5.3°C 47.8°F8.8°C 41.6°F5.3°C 44.2°F6.8°C
Winds 1.0 mph ENE1.6 kmh ENE 4.0 mph -6.4 kmh - - 2.2 mph 3.5 kmh
Wind Gusts 5.0 mph8.0 kmh 12.0 mph19.3 kmh - -
Humidity 73% 95% 68% 87%
Pressure 30.22 in1023.4 mb 30.27 in1025.1 mb 30.22 in1023.4 mb -
Precipitation - 0.01 in0.3 mm - -
Hour Temp Dew Point Humidity Winds Wind Gusts Pressure Precip Precip Rate Daily Precip Total
04:00 PM 49.9°F9.9°C 41.6°F5.3°C 73% 1.0 mph ENE1.6 kmh ENE 5.0 mph8.0 kmh 30.22 in1023.4 mb 0.00 in0.0 mm 0.00 in0.0 mm 0.01 in0.3 mm
03:45 PM 50.7°F10.4°C 41.6°F5.3°C 71% 2.0 mph NE3.2 kmh NE 8.0 mph12.9 kmh 30.22 in1023.4 mb 0.00 in0.0 mm 0.00 in0.0 mm 0.01 in0.3 mm
03:30 PM 51.2°F10.7°C 42.1°F5.6°C 71% 2.0 mph NE3.2 kmh NE 11.0 mph17.7 kmh 30.22 in1023.4 mb 0.00 in0.0 mm 0.00 in0.0 mm 0.01 in0.3 mm
03:15 PM 51.8°F11.0°C 42.3°F5.7°C 70% 1.0 mph NE1.6 kmh NE 7.0 mph11.3 kmh 30.22 in1023.4 mb 0.00 in0.0 mm 0.00 in0.0 mm 0.01 in0.3 mm
03:00 PM 52.2°F11.2°C 42.7°F5.9°C 70% 3.0 mph NE4.8 kmh NE 9.0 mph14.5 kmh 30.22 in1023.4 mb 0.00 in0.0 mm 0.00 in0.0 mm 0.01 in0.3 mm
02:45 PM 52.6°F11.4°C 42.3°F5.7°C 68% 3.0 mph ENE4.8 kmh ENE 11.0 mph17.7 kmh 30.22 in1023.4 mb 0.00 in0.0 mm 0.00 in0.0 mm 0.01 in0.3 mm
02:30 PM 52.8°F11.6°C 43.3°F6.3°C 70% 2.0 mph NE3.2 kmh NE 9.0 mph14.5 kmh 30.22 in1023.4 mb 0.00 in0.0 mm 0.00 in0.0 mm 0.01 in0.3 mm
02:15 PM 52.7°F11.5°C 43.9°F6.6°C 72% 4.0 mph ENE6.4 kmh ENE 9.0 mph14.5 kmh 30.22 in1023.4 mb 0.00 in0.0 mm 0.00 in0.0 mm 0.01 in0.3 mm
02:00 PM 52.8°F11.6°C 44.4°F6.9°C 73% 3.0 mph NE4.8 kmh NE 9.0 mph14.5 kmh 30.22 in1023.4 mb 0.00 in0.0 mm 0.00 in0.0 mm 0.01 in0.3 mm
01:45 PM 52.8°F11.6°C 44.7°F7.1°C 74% 3.0 mph NE4.8 kmh NE 10.0 mph16.1 kmh 30.23 in1023.7 mb 0.00 in0.0 mm 0.00 in0.0 mm 0.01 in0.3 mm
01:30 PM 52.4°F11.3°C 45.1°F7.3°C 76% 3.0 mph NE4.8 kmh NE 8.0 mph12.9 kmh 30.23 in1023.7 mb 0.00 in0.0 mm 0.00 in0.0 mm 0.01 in0.3 mm
01:15 PM 52.1°F11.2°C 44.8°F7.1°C 76% 3.0 mph ENE4.8 kmh ENE 8.0 mph12.9 kmh 30.23 in1023.7 mb 0.00 in0.0 mm 0.00 in0.0 mm 0.01 in0.3 mm
01:00 PM 51.6°F10.9°C 44.3°F6.8°C 76% 4.0 mph NE6.4 kmh NE 10.0 mph16.1 kmh 30.24 in1024.0 mb 0.00 in0.0 mm 0.00 in0.0 mm 0.01 in0.3 mm
12:45 PM 51.6°F10.9°C 43.9°F6.6°C 75% 4.0 mph ENE6.4 kmh ENE 10.0 mph16.1 kmh 30.25 in1024.4 mb 0.00 in0.0 mm 0.00 in0.0 mm 0.01 in0.3 mm
12:30 PM 51.6°F10.9°C 44.6°F7.0°C 77% 3.0 mph NE4.8 kmh NE 9.0 mph14.5 kmh 30.25 in1024.4 mb 0.00 in0.0 mm 0.00 in0.0 mm 0.01 in0.3 mm
12:15 PM 51.1°F10.6°C 44.5°F6.9°C 78% 2.0 mph NE3.2 kmh NE 8.0 mph12.9 kmh 30.25 in1024.4 mb 0.00 in0.0 mm 0.00 in0.0 mm 0.01 in0.3 mm
12:00 PM 50.0°F10.0°C 44.4°F6.9°C 81% 3.0 mph ENE4.8 kmh ENE 10.0 mph16.1 kmh 30.25 in1024.4 mb 0.00 in0.0 mm 0.00 in0.0 mm 0.01 in0.3 mm
11:45 AM 48.7°F9.3°C 43.8°F6.6°C 83% 3.0 mph NE4.8 kmh NE 8.0 mph12.9 kmh 30.25 in1024.4 mb 0.00 in0.0 mm 0.00 in0.0 mm 0.01 in0.3 mm
11:30 AM 47.6°F8.7°C 43.0°F6.1°C 84% 3.0 mph NE4.8 kmh NE 9.0 mph14.5 kmh 30.25 in1024.4 mb 0.00 in0.0 mm 0.00 in0.0 mm 0.01 in0.3 mm
11:15 AM 47.1°F8.4°C 42.2°F5.7°C 83% 3.0 mph NE4.8 kmh NE 11.0 mph17.7 kmh 30.26 in1024.7 mb 0.00 in0.0 mm 0.00 in0.0 mm 0.01 in0.3 mm
11:00 AM 47.2°F8.4°C 42.3°F5.7°C 83% 3.0 mph NE4.8 kmh NE 9.0 mph14.5 kmh 30.27 in1025.1 mb 0.00 in0.0 mm 0.00 in0.0 mm 0.01 in0.3 mm
10:45 AM 47.5°F8.6°C 42.6°F5.9°C 83% 3.0 mph NE4.8 kmh NE 11.0 mph17.7 kmh 30.27 in1025.1 mb 0.00 in0.0 mm 0.00 in0.0 mm 0.01 in0.3 mm
10:30 AM 47.3°F8.5°C 42.7°F5.9°C 84% 2.0 mph ENE3.2 kmh ENE 7.0 mph11.3 kmh 30.27 in1025.1 mb 0.00 in0.0 mm 0.00 in0.0 mm 0.01 in0.3 mm
10:15 AM 46.6°F8.1°C 42.3°F5.7°C 85% 3.0 mph ENE4.8 kmh ENE 9.0 mph14.5 kmh 30.27 in1025.1 mb 0.00 in0.0 mm 0.00 in0.0 mm 0.01 in0.3 mm
10:00 AM 47.0°F8.3°C 42.7°F5.9°C 85% 2.0 mph NE3.2 kmh NE 9.0 mph14.5 kmh 30.27 in1025.1 mb 0.00 in0.0 mm 0.00 in0.0 mm 0.01 in0.3 mm
09:45 AM 46.5°F8.1°C 42.8°F6.0°C 87% 2.0 mph NE3.2 kmh NE 6.0 mph9.7 kmh 30.27 in1025.1 mb 0.00 in0.0 mm 0.00 in0.0 mm 0.01 in0.3 mm
09:30 AM 45.8°F7.7°C 42.2°F5.7°C 87% 2.0 mph NE3.2 kmh NE 8.0 mph12.9 kmh 30.27 in1025.1 mb 0.00 in0.0 mm 0.00 in0.0 mm 0.01 in0.3 mm
09:15 AM 45.7°F7.6°C 42.1°F5.6°C 87% 3.0 mph NE4.8 kmh NE 12.0 mph19.3 kmh 30.27 in1025.1 mb 0.00 in0.0 mm 0.00 in0.0 mm 0.01 in0.3 mm
09:00 AM 45.6°F7.6°C 42.3°F5.7°C 88% 2.0 mph ENE3.2 kmh ENE 6.0 mph9.7 kmh 30.27 in1025.1 mb 0.00 in0.0 mm 0.00 in0.0 mm 0.01 in0.3 mm
08:45 AM 45.5°F7.5°C 42.2°F5.7°C 88% 2.0 mph ENE3.2 kmh ENE 9.0 mph14.5 kmh 30.26 in1024.7 mb 0.00 in0.0 mm 0.00 in0.0 mm 0.01 in0.3 mm
08:30 AM 45.4°F7.4°C 42.1°F5.6°C 88% 3.0 mph NE4.8 kmh NE 9.0 mph14.5 kmh 30.26 in1024.7 mb 0.00 in0.0 mm 0.00 in0.0 mm 0.01 in0.3 mm
08:15 AM 45.4°F7.4°C 42.3°F5.7°C 89% 3.0 mph NE4.8 kmh NE 9.0 mph14.5 kmh 30.26 in1024.7 mb 0.00 in0.0 mm 0.00 in0.0 mm 0.01 in0.3 mm
08:00 AM 45.3°F7.4°C 42.5°F5.8°C 90% 2.0 mph ENE3.2 kmh ENE 8.0 mph12.9 kmh 30.26 in1024.7 mb 0.00 in0.0 mm 0.00 in0.0 mm 0.01 in0.3 mm
07:45 AM 45.3°F7.4°C 42.8°F6.0°C 91% 3.0 mph ENE4.8 kmh ENE 11.0 mph17.7 kmh 30.25 in1024.4 mb 0.00 in0.0 mm 0.00 in0.0 mm 0.01 in0.3 mm
07:30 AM 45.5°F7.5°C 43.3°F6.3°C 92% 2.0 mph ENE3.2 kmh ENE 5.0 mph8.0 kmh 30.25 in1024.4 mb 0.00 in0.0 mm 0.00 in0.0 mm 0.01 in0.3 mm
07:15 AM 45.6°F7.6°C 43.7°F6.5°C 93% 2.0 mph E3.2 kmh E 10.0 mph16.1 kmh 30.25 in1024.4 mb 0.00 in0.0 mm 0.00 in0.0 mm 0.01 in0.3 mm
07:00 AM 45.9°F7.7°C 44.3°F6.8°C 94% 2.0 mph NE3.2 kmh NE 5.0 mph8.0 kmh 30.25 in1024.4 mb 0.00 in0.0 mm 0.00 in0.0 mm 0.01 in0.3 mm
06:45 AM 46.0°F7.8°C 44.6°F7.0°C 95% 2.0 mph NE3.2 kmh NE 7.0 mph11.3 kmh 30.24 in1024.0 mb 0.00 in0.0 mm 0.00 in0.0 mm 0.01 in0.3 mm
06:30 AM 46.0°F7.8°C 44.6°F7.0°C 95% 2.0 mph NE3.2 kmh NE 6.0 mph9.7 kmh 30.24 in1024.0 mb 0.00 in0.0 mm 0.00 in0.0 mm 0.01 in0.3 mm
06:15 AM 46.1°F7.8°C 44.7°F7.1°C 95% 2.0 mph NE3.2 kmh NE 8.0 mph12.9 kmh 30.24 in1024.0 mb 0.00 in0.0 mm 0.00 in0.0 mm 0.01 in0.3 mm
06:00 AM 46.0°F7.8°C 44.6°F7.0°C 95% 2.0 mph ENE3.2 kmh ENE 5.0 mph8.0 kmh 30.24 in1024.0 mb 0.00 in0.0 mm 0.00 in0.0 mm 0.01 in0.3 mm
05:45 AM 46.0°F7.8°C 44.6°F7.0°C 95% 2.0 mph NE3.2 kmh NE 10.0 mph16.1 kmh 30.24 in1024.0 mb 0.00 in0.0 mm 0.00 in0.0 mm 0.01 in0.3 mm
05:30 AM 46.2°F7.9°C 44.8°F7.1°C 95% 2.0 mph ENE3.2 kmh ENE 8.0 mph12.9 kmh 30.23 in1023.7 mb 0.00 in0.0 mm 0.00 in0.0 mm 0.01 in0.3 mm
05:15 AM 46.2°F7.9°C 44.8°F7.1°C 95% 2.0 mph NE3.2 kmh NE 9.0 mph14.5 kmh 30.23 in1023.7 mb 0.00 in0.0 mm 0.00 in0.0 mm 0.01 in0.3 mm
05:00 AM 46.3°F7.9°C 44.9°F7.2°C 95% 3.0 mph NE4.8 kmh NE 8.0 mph12.9 kmh 30.23 in1023.7 mb 0.00 in0.0 mm 0.00 in0.0 mm 0.01 in0.3 mm
04:45 AM 46.4°F8.0°C 45.0°F7.2°C 95% 2.0 mph NE3.2 kmh NE 10.0 mph16.1 kmh 30.23 in1023.7 mb 0.00 in0.0 mm 0.00 in0.0 mm 0.01 in0.3 mm
04:30 AM 46.5°F8.1°C 45.1°F7.3°C 95% 1.0 mph ENE1.6 kmh ENE 5.0 mph8.0 kmh 30.23 in1023.7 mb 0.00 in0.0 mm 0.00 in0.0 mm 0.01 in0.3 mm
04:15 AM 46.4°F8.0°C 45.0°F7.2°C 95% 2.0 mph ENE3.2 kmh ENE 7.0 mph11.3 kmh 30.24 in1024.0 mb 0.00 in0.0 mm 0.00 in0.0 mm 0.01 in0.3 mm
04:00 AM 46.5°F8.1°C 45.1°F7.3°C 95% 3.0 mph NE4.8 kmh NE 9.0 mph14.5 kmh 30.24 in1024.0 mb 0.00 in0.0 mm 0.00 in0.0 mm 0.01 in0.3 mm
03:45 AM 46.8°F8.2°C 45.4°F7.4°C 95% 2.0 mph NE3.2 kmh NE 8.0 mph12.9 kmh 30.24 in1024.0 mb 0.00 in0.0 mm 0.00 in0.0 mm 0.01 in0.3 mm
03:30 AM 47.2°F8.4°C 45.8°F7.7°C 95% 3.0 mph ENE4.8 kmh ENE 9.0 mph14.5 kmh 30.24 in1024.0 mb 0.00 in0.0 mm 0.00 in0.0 mm 0.01 in0.3 mm
03:15 AM 47.3°F8.5°C 45.9°F7.7°C 95% 1.0 mph ENE1.6 kmh ENE 5.0 mph8.0 kmh 30.25 in1024.4 mb 0.00 in0.0 mm 0.00 in0.0 mm 0.01 in0.3 mm
03:00 AM 47.2°F8.4°C 45.8°F7.7°C 95% Calm Calm 2.0 mph3.2 kmh 30.25 in1024.4 mb 0.00 in0.0 mm 0.00 in0.0 mm 0.01 in0.3 mm
02:45 AM 47.0°F8.3°C 45.6°F7.6°C 95% Calm Calm 2.0 mph3.2 kmh 30.25 in1024.4 mb 0.00 in0.0 mm 0.00 in0.0 mm 0.01 in0.3 mm
02:30 AM 47.1°F8.4°C 45.7°F7.6°C 95% 1.0 mph ENE1.6 kmh ENE 6.0 mph9.7 kmh 30.25 in1024.4 mb 0.00 in0.0 mm 0.00 in0.0 mm 0.01 in0.3 mm
02:15 AM 47.3°F8.5°C 45.9°F7.7°C 95% 2.0 mph NE3.2 kmh NE 8.0 mph12.9 kmh 30.25 in1024.4 mb 0.00 in0.0 mm 0.00 in0.0 mm 0.01 in0.3 mm
02:00 AM 47.5°F8.6°C 46.1°F7.8°C 95% 2.0 mph ENE3.2 kmh ENE 8.0 mph12.9 kmh 30.25 in1024.4 mb 0.01 in0.3 mm 0.00 in0.0 mm 0.01 in0.3 mm
01:45 AM 47.7°F8.7°C 46.3°F7.9°C 95% 2.0 mph NE3.2 kmh NE 10.0 mph16.1 kmh 30.25 in1024.4 mb 0.01 in0.3 mm 0.00 in0.0 mm 0.01 in0.3 mm
01:30 AM 47.9°F8.8°C 46.5°F8.1°C 95% 2.0 mph NE3.2 kmh NE 7.0 mph11.3 kmh 30.26 in1024.7 mb 0.01 in0.3 mm 0.00 in0.0 mm 0.01 in0.3 mm
01:15 AM 48.2°F9.0°C 46.8°F8.2°C 95% 1.0 mph ENE1.6 kmh ENE 7.0 mph11.3 kmh 30.25 in1024.4 mb 0.01 in0.3 mm 0.04 in1.0 mm 0.01 in0.3 mm
01:00 AM 48.4°F9.1°C 47.0°F8.3°C 95% 1.0 mph NE1.6 kmh NE 5.0 mph8.0 kmh 30.25 in1024.4 mb 0.00 in0.0 mm 0.00 in0.0 mm 0.00 in0.0 mm
12:45 AM 48.7°F9.3°C 47.3°F8.5°C 95% 2.0 mph ENE3.2 kmh ENE 6.0 mph9.7 kmh 30.25 in1024.4 mb 0.00 in0.0 mm 0.00 in0.0 mm 0.00 in0.0 mm
12:30 AM 48.9°F9.4°C 47.5°F8.6°C 95% 2.0 mph NE3.2 kmh NE 5.0 mph8.0 kmh 30.25 in1024.4 mb 0.00 in0.0 mm 0.00 in0.0 mm 0.00 in0.0 mm
12:15 AM 49.0°F9.4°C 47.6°F8.7°C 95% 2.0 mph ENE3.2 kmh ENE 7.0 mph11.3 kmh 30.25 in1024.4 mb 0.00 in0.0 mm 0.00 in0.0 mm 0.00 in0.0 mm
12:00 AM 49.2°F9.6°C 47.8°F8.8°C 95% 1.0 mph NE1.6 kmh NE 5.0 mph8.0 kmh 30.25 in1024.4 mb 0.00 in0.0 mm 0.00 in0.0 mm 0.00 in0.0 mm